createdAt,value
2017-06-28T00:00:09.441Z,23.22
2017-06-28T00:00:49.935Z,23.17
2017-06-28T00:01:31.212Z,23.22
2017-06-28T00:02:11.742Z,23.22
2017-06-28T00:02:52.235Z,23.12
2017-06-28T00:03:32.730Z,23.12
2017-06-28T00:04:13.212Z,23.13
2017-06-28T00:04:53.707Z,23.15
2017-06-28T00:05:34.202Z,23.17
2017-06-28T00:06:14.695Z,23.27
2017-06-28T00:06:55.190Z,23.27
2017-06-28T00:07:35.679Z,23.17
2017-06-28T00:08:16.175Z,23.2
2017-06-28T00:08:56.665Z,23.23
2017-06-28T00:09:37.159Z,23.25
2017-06-28T00:10:17.651Z,23.15
2017-06-28T00:10:58.148Z,23.23
2017-06-28T00:11:38.641Z,23.17
2017-06-28T00:12:19.128Z,23.15
2017-06-28T00:12:59.620Z,23.19
2017-06-28T00:13:40.111Z,23.17
2017-06-28T00:14:20.581Z,23.2
2017-06-28T00:15:01.064Z,23.15
2017-06-28T00:15:41.539Z,23.19
2017-06-28T00:16:22.026Z,23.12
2017-06-28T00:17:02.523Z,23.17
2017-06-28T00:17:43.003Z,23.15
2017-06-28T00:18:23.467Z,23.15
2017-06-28T00:19:03.957Z,23.19
2017-06-28T00:19:44.450Z,23.22
2017-06-28T00:20:25.445Z,23.27
2017-06-28T00:21:05.941Z,23.27
2017-06-28T00:21:46.431Z,23.22
2017-06-28T00:22:26.922Z,23.28
2017-06-28T00:23:07.418Z,23.22
2017-06-28T00:23:47.912Z,23.2
2017-06-28T00:24:28.408Z,23.15
2017-06-28T00:25:08.902Z,23.2
2017-06-28T00:25:49.391Z,23.19
2017-06-28T00:26:29.903Z,23.22
2017-06-28T00:27:10.408Z,23.16
2017-06-28T00:27:50.895Z,23.17
2017-06-28T00:28:31.389Z,23.13
2017-06-28T00:29:11.887Z,23.2
2017-06-28T00:29:52.372Z,23.33
2017-06-28T00:30:32.862Z,23.27
2017-06-28T00:31:13.355Z,23.31
2017-06-28T00:31:53.824Z,23.28
2017-06-28T00:32:34.290Z,23.25
2017-06-28T00:33:14.728Z,23.25
2017-06-28T00:33:55.209Z,23.23
2017-06-28T00:34:36.653Z,23.23
2017-06-28T00:36:34.263Z,23.27
2017-06-28T00:37:14.731Z,23.19
2017-06-28T00:37:55.203Z,23.01
2017-06-28T00:38:35.701Z,22.94
2017-06-28T00:39:16.179Z,22.9
2017-06-28T00:39:56.682Z,22.82
2017-06-28T00:40:37.174Z,22.76
2017-06-28T00:41:17.661Z,22.67
2017-06-28T00:41:58.146Z,22.64
2017-06-28T00:42:38.609Z,22.65
2017-06-28T00:43:19.076Z,22.67
2017-06-28T00:43:59.520Z,22.6
2017-06-28T00:44:39.968Z,22.65
2017-06-28T00:45:20.448Z,22.67
2017-06-28T00:46:00.949Z,22.62
2017-06-28T00:46:41.438Z,22.79
2017-06-28T00:47:21.941Z,22.65
2017-06-28T00:48:02.426Z,22.8
2017-06-28T00:48:43.803Z,22.79
2017-06-28T00:49:24.295Z,22.72
2017-06-28T00:50:04.787Z,22.73
2017-06-28T00:50:45.278Z,22.72
2017-06-28T00:51:25.774Z,22.73
2017-06-28T00:53:23.440Z,22.9
2017-06-28T00:54:03.895Z,22.88
2017-06-28T00:54:44.388Z,22.94
2017-06-28T00:55:24.871Z,23.01
2017-06-28T00:56:05.363Z,23.02
2017-06-28T00:56:45.863Z,23.04
2017-06-28T00:57:26.342Z,23
2017-06-28T00:58:07.604Z,23
2017-06-28T00:58:48.093Z,23.09
2017-06-28T00:59:28.583Z,23.19
2017-06-28T01:00:09.086Z,23.16
2017-06-28T01:00:49.603Z,23.22
2017-06-28T01:01:30.090Z,23.27
2017-06-28T01:02:10.569Z,23.19
2017-06-28T01:02:51.053Z,23.17
2017-06-28T01:03:31.547Z,23.27
2017-06-28T01:04:12.029Z,23.12
2017-06-28T01:04:52.540Z,23.05
2017-06-28T01:05:33.011Z,22.85
2017-06-28T01:06:13.459Z,22.83
2017-06-28T01:06:53.961Z,22.67
2017-06-28T01:07:34.438Z,22.64
2017-06-28T01:08:14.932Z,22.49
2017-06-28T01:08:55.418Z,22.28
2017-06-28T01:09:35.935Z,22.22
2017-06-28T01:10:16.419Z,22.17
2017-06-28T01:10:56.915Z,22.17
2017-06-28T01:11:37.405Z,21.88
2017-06-28T01:12:17.879Z,21.9
2017-06-28T01:12:58.310Z,21.98
2017-06-28T01:13:38.768Z,21.82
2017-06-28T01:14:19.277Z,21.77
2017-06-28T01:14:59.793Z,21.58
2017-06-28T01:15:40.288Z,21.62
2017-06-28T01:16:20.785Z,21.42
2017-06-28T01:17:01.269Z,21.42
2017-06-28T01:17:41.760Z,21.47
2017-06-28T01:18:22.245Z,21.35
2017-06-28T01:19:02.749Z,21.37
2017-06-28T01:19:43.243Z,21.28
2017-06-28T01:20:23.738Z,21.19
2017-06-28T01:21:04.221Z,21.14
2017-06-28T01:21:44.718Z,21.03
2017-06-28T01:22:25.207Z,20.95
2017-06-28T01:23:05.701Z,20.92
2017-06-28T01:23:46.198Z,20.85
2017-06-28T01:24:26.673Z,20.79
2017-06-28T01:25:07.173Z,20.85
2017-06-28T01:25:47.674Z,20.7
2017-06-28T01:26:28.171Z,20.66
2017-06-28T01:27:08.654Z,20.59
2017-06-28T01:27:49.150Z,20.62
2017-06-28T01:28:29.643Z,20.55
2017-06-28T01:29:10.133Z,20.57
2017-06-28T01:29:50.625Z,20.55
2017-06-28T01:30:31.117Z,20.58
2017-06-28T01:31:11.608Z,20.54
2017-06-28T01:31:52.103Z,20.54
2017-06-28T01:32:32.582Z,20.52
2017-06-28T01:33:13.068Z,20.33
2017-06-28T01:34:50.407Z,20.33
2017-06-28T01:35:30.891Z,20.35
2017-06-28T01:36:11.386Z,20.29
2017-06-28T01:36:51.875Z,20.29
2017-06-28T01:37:32.375Z,20.18
2017-06-28T01:38:12.916Z,20.17
2017-06-28T01:38:53.357Z,20.03
2017-06-28T01:39:33.844Z,19.98
2017-06-28T01:40:14.344Z,20.06
2017-06-28T01:40:54.821Z,20.01
2017-06-28T01:41:35.315Z,19.92
2017-06-28T01:42:15.822Z,19.83
2017-06-28T01:42:56.302Z,19.78
2017-06-28T01:43:36.793Z,19.74
2017-06-28T01:44:17.283Z,19.77
2017-06-28T01:44:57.763Z,19.71
2017-06-28T01:46:45.691Z,19.47
2017-06-28T01:47:25.955Z,19.29
2017-06-28T01:48:06.438Z,19.25
2017-06-28T01:49:59.679Z,20.17
2017-06-28T01:50:40.236Z,19.95
2017-06-28T01:51:20.694Z,19.96
2017-06-28T01:52:02.071Z,19.96
2017-06-28T01:52:43.176Z,19.96
2017-06-28T01:54:41.371Z,19.94
2017-06-28T01:55:21.611Z,19.98
2017-06-28T01:56:02.050Z,19.95
2017-06-28T01:57:50.032Z,19.86
2017-06-28T01:58:30.026Z,19.94
2017-06-28T01:59:10.471Z,19.88
2017-06-28T01:59:50.912Z,19.94
2017-06-28T02:00:31.385Z,19.98
2017-06-28T02:01:11.827Z,19.98
2017-06-28T02:01:52.302Z,20.03
2017-06-28T02:02:32.753Z,20.08
2017-06-28T02:03:13.214Z,20.01
2017-06-28T02:03:53.651Z,19.98
2017-06-28T02:04:34.103Z,20.05
2017-06-28T02:05:14.564Z,20.01
2017-06-28T02:05:55.015Z,19.99
2017-06-28T02:06:35.447Z,19.92
2017-06-28T02:07:15.909Z,20.01
2017-06-28T02:07:56.346Z,19.95
2017-06-28T02:08:36.827Z,19.98
2017-06-28T02:09:17.271Z,19.83
2017-06-28T02:09:57.724Z,19.94
2017-06-28T02:10:38.150Z,19.95
2017-06-28T02:11:18.605Z,19.92
2017-06-28T02:11:59.091Z,19.92
2017-06-28T02:12:39.539Z,19.96
2017-06-28T02:13:20.006Z,20.01
2017-06-28T02:14:00.477Z,20.03
2017-06-28T02:14:40.913Z,20.01
2017-06-28T02:15:21.377Z,19.98
2017-06-28T02:16:01.841Z,20.03
2017-06-28T02:16:42.268Z,19.99
2017-06-28T02:17:22.740Z,20.03
2017-06-28T02:18:03.196Z,20.01
2017-06-28T02:18:43.672Z,19.98
2017-06-28T02:19:24.134Z,20.06
2017-06-28T02:20:04.611Z,20.05
2017-06-28T02:21:52.109Z,20.08
2017-06-28T02:22:32.598Z,20.02
2017-06-28T02:23:13.077Z,20.03
2017-06-28T02:23:53.530Z,20.03
2017-06-28T02:24:34.036Z,19.99
2017-06-28T02:25:14.515Z,20.06
2017-06-28T02:25:55.003Z,19.99
2017-06-28T02:26:35.501Z,19.99
2017-06-28T02:27:15.985Z,19.99
2017-06-28T02:27:56.461Z,19.98
2017-06-28T02:28:36.948Z,19.96
2017-06-28T02:29:17.438Z,20.06
2017-06-28T02:29:57.926Z,20.05
2017-06-28T02:30:38.422Z,20.13
2017-06-28T02:31:18.910Z,20.18
2017-06-28T02:31:59.402Z,20.1
2017-06-28T02:32:39.926Z,20.18
2017-06-28T02:33:20.350Z,20.17
2017-06-28T02:34:00.832Z,20.13
2017-06-28T02:35:54.302Z,20.23
2017-06-28T02:36:34.572Z,20.26
2017-06-28T02:37:15.022Z,20.2
2017-06-28T02:37:55.530Z,20.13
2017-06-28T02:38:35.932Z,20.18
2017-06-28T02:39:16.384Z,20.17
2017-06-28T02:39:56.833Z,20.24
2017-06-28T02:41:49.960Z,20.13
2017-06-28T02:42:30.350Z,20.14
2017-06-28T02:43:10.769Z,20.21
2017-06-28T02:43:51.233Z,20.1
2017-06-28T02:44:31.724Z,20.08
2017-06-28T02:45:12.181Z,20.14
2017-06-28T02:47:25.868Z,20.24
2017-06-28T02:48:06.195Z,20.08
2017-06-28T02:48:46.637Z,20.08
2017-06-28T02:49:27.090Z,20.18
2017-06-28T02:50:07.575Z,20.26
2017-06-28T02:52:40.964Z,20.24
2017-06-28T02:54:55.020Z,20.29
2017-06-28T02:55:35.048Z,20.29
2017-06-28T02:56:15.500Z,20.28
2017-06-28T02:56:55.948Z,20.28
2017-06-28T02:57:36.405Z,20.31
2017-06-28T02:58:16.868Z,20.33
2017-06-28T02:58:57.267Z,20.33
2017-06-28T02:59:37.731Z,20.28
2017-06-28T03:00:18.231Z,20.43
2017-06-28T03:00:58.679Z,20.36
2017-06-28T03:01:39.151Z,20.36
2017-06-28T03:02:19.612Z,20.48
2017-06-28T03:03:00.041Z,20.42
2017-06-28T03:03:40.728Z,20.5
2017-06-28T03:04:21.193Z,20.42
2017-06-28T03:05:01.575Z,20.41
2017-06-28T03:05:42.081Z,20.52
2017-06-28T03:06:22.602Z,20.5
2017-06-28T03:07:03.030Z,20.39
2017-06-28T03:07:43.438Z,20.51
2017-06-28T03:08:23.926Z,20.62
2017-06-28T03:09:04.348Z,20.57
2017-06-28T03:09:44.855Z,20.58
2017-06-28T03:10:25.260Z,20.58
2017-06-28T03:11:05.795Z,20.57
2017-06-28T03:11:46.201Z,20.51
2017-06-28T03:12:26.727Z,20.52
2017-06-28T03:13:07.171Z,20.51
2017-06-28T03:13:47.638Z,20.59
2017-06-28T03:14:28.052Z,20.5
2017-06-28T03:15:08.760Z,20.5
2017-06-28T03:15:49.214Z,20.59
2017-06-28T03:16:29.678Z,20.58
2017-06-28T03:17:10.148Z,20.57
2017-06-28T03:17:50.546Z,20.58
2017-06-28T03:18:31.049Z,20.59
2017-06-28T03:19:11.494Z,20.62
2017-06-28T03:19:51.948Z,20.62
2017-06-28T03:20:32.373Z,20.58
2017-06-28T03:21:12.843Z,20.57
2017-06-28T03:21:53.255Z,20.54
2017-06-28T03:22:33.742Z,20.57
2017-06-28T03:23:14.137Z,20.61
2017-06-28T03:23:54.702Z,20.62
2017-06-28T03:24:35.085Z,20.59
2017-06-28T03:25:15.629Z,20.61
2017-06-28T03:25:56.097Z,20.52
2017-06-28T03:26:36.541Z,20.48
2017-06-28T03:27:16.980Z,20.62
2017-06-28T03:27:57.428Z,20.54
2017-06-28T03:28:37.897Z,20.59
2017-06-28T03:29:18.294Z,20.51
2017-06-28T03:29:58.716Z,20.62
2017-06-28T03:30:39.174Z,20.58
2017-06-28T03:31:19.641Z,20.54
2017-06-28T03:32:00.086Z,20.59
2017-06-28T03:32:40.533Z,20.52
2017-06-28T03:33:21.118Z,20.59
2017-06-28T03:34:01.508Z,20.61
2017-06-28T03:34:42.054Z,20.64
2017-06-28T03:35:22.580Z,20.59
2017-06-28T03:36:02.948Z,20.64
2017-06-28T03:36:43.394Z,20.66
2017-06-28T03:37:23.877Z,20.64
2017-06-28T03:38:04.342Z,20.62
2017-06-28T03:38:44.800Z,20.64
2017-06-28T03:39:25.303Z,20.67
2017-06-28T03:40:05.762Z,20.62
2017-06-28T03:40:46.264Z,20.66
2017-06-28T03:42:23.660Z,20.66
2017-06-28T03:43:04.129Z,20.62
2017-06-28T03:43:44.613Z,20.61
2017-06-28T03:44:25.099Z,20.64
2017-06-28T03:45:05.583Z,20.54
2017-06-28T03:45:46.083Z,20.43
2017-06-28T03:46:26.576Z,20.5
2017-06-28T03:47:07.060Z,20.54
2017-06-28T03:47:47.574Z,20.55
2017-06-28T03:48:28.079Z,20.61
2017-06-28T03:49:08.613Z,20.64
2017-06-28T03:49:49.101Z,20.67
2017-06-28T03:50:29.593Z,20.69
2017-06-28T03:51:10.079Z,20.64
2017-06-28T03:51:50.589Z,20.62
2017-06-28T03:52:31.049Z,20.58
2017-06-28T03:53:11.537Z,20.64
2017-06-28T03:53:52.029Z,20.72
2017-06-28T03:54:32.513Z,20.64
2017-06-28T03:55:13.001Z,20.64
2017-06-28T03:55:53.510Z,20.72
2017-06-28T03:56:34.001Z,20.73
2017-06-28T03:57:14.451Z,20.72
2017-06-28T03:57:54.932Z,20.67
2017-06-28T03:58:35.386Z,20.7
2017-06-28T03:59:15.817Z,20.72
2017-06-28T03:59:56.239Z,20.61
2017-06-28T04:01:53.878Z,20.69
2017-06-28T04:02:34.325Z,20.64
2017-06-28T04:03:14.834Z,20.69
2017-06-28T04:03:55.340Z,20.66
2017-06-28T04:04:35.802Z,20.69
2017-06-28T04:05:16.297Z,20.64
2017-06-28T04:05:56.796Z,20.64
2017-06-28T04:06:37.280Z,20.62
2017-06-28T04:07:17.770Z,20.67
2017-06-28T04:07:58.252Z,20.64
2017-06-28T04:08:38.760Z,20.64
2017-06-28T04:09:19.257Z,20.64
2017-06-28T04:09:59.746Z,20.7
2017-06-28T04:10:40.213Z,20.66
2017-06-28T04:11:20.690Z,20.72
2017-06-28T04:12:01.181Z,20.61
2017-06-28T04:12:41.660Z,20.61
2017-06-28T04:13:22.164Z,20.62
2017-06-28T04:14:02.656Z,20.64
2017-06-28T04:14:43.148Z,20.61
2017-06-28T04:15:23.645Z,20.62
2017-06-28T04:16:04.141Z,20.61
2017-06-28T04:16:44.602Z,20.61
2017-06-28T04:17:25.055Z,20.59
2017-06-28T04:18:05.511Z,20.57
2017-06-28T04:18:45.974Z,20.64
2017-06-28T04:19:26.425Z,20.52
2017-06-28T04:20:06.883Z,20.61
2017-06-28T04:20:47.326Z,20.54
2017-06-28T04:21:27.793Z,20.55
2017-06-28T04:22:08.244Z,20.58
2017-06-28T04:23:46.136Z,20.54
2017-06-28T04:24:26.383Z,20.54
2017-06-28T04:25:06.849Z,20.54
2017-06-28T04:25:47.339Z,20.52
2017-06-28T04:26:27.756Z,20.61
2017-06-28T04:27:08.231Z,20.58
2017-06-28T04:27:48.642Z,20.62
2017-06-28T04:28:29.062Z,20.55
2017-06-28T04:29:09.491Z,20.57
2017-06-28T04:29:49.951Z,20.52
2017-06-28T04:30:30.464Z,20.55
2017-06-28T04:31:10.886Z,20.55
2017-06-28T04:31:51.338Z,20.55
2017-06-28T04:32:31.784Z,20.58
2017-06-28T04:33:12.235Z,20.58
2017-06-28T04:33:52.701Z,20.55
2017-06-28T04:34:33.167Z,20.58
2017-06-28T04:36:10.838Z,20.57
2017-06-28T04:36:51.301Z,20.54
2017-06-28T04:37:31.754Z,20.47
2017-06-28T04:38:12.204Z,20.47
2017-06-28T04:38:52.671Z,20.54
2017-06-28T04:39:33.088Z,20.47
2017-06-28T04:40:13.682Z,20.54
2017-06-28T04:40:54.185Z,20.54
2017-06-28T04:41:34.619Z,20.48
2017-06-28T04:42:15.074Z,20.57
2017-06-28T04:42:55.547Z,20.54
2017-06-28T04:43:35.940Z,20.51
2017-06-28T04:44:16.409Z,20.61
2017-06-28T04:46:14.572Z,20.47
2017-06-28T04:46:54.825Z,20.55
2017-06-28T04:47:35.266Z,20.52
2017-06-28T04:48:15.725Z,20.57
2017-06-28T04:49:53.421Z,20.52
2017-06-28T04:50:33.545Z,20.57
2017-06-28T04:51:14.876Z,20.57
2017-06-28T04:51:55.325Z,20.57
2017-06-28T04:52:35.793Z,20.5
2017-06-28T04:53:16.264Z,20.55
2017-06-28T04:53:56.692Z,20.59
2017-06-28T04:54:37.164Z,20.47
2017-06-28T04:55:17.687Z,20.5
2017-06-28T04:55:58.157Z,20.54
2017-06-28T04:56:38.672Z,20.51
2017-06-28T04:57:19.084Z,20.47
2017-06-28T04:57:59.538Z,20.5
2017-06-28T04:58:40.010Z,20.48
2017-06-28T04:59:20.439Z,20.51
2017-06-28T05:00:00.926Z,20.5
2017-06-28T05:00:41.366Z,20.58
2017-06-28T05:01:21.821Z,20.52
2017-06-28T05:02:02.266Z,20.54
2017-06-28T05:02:42.717Z,20.55
2017-06-28T05:04:55.619Z,20.61
2017-06-28T05:05:35.867Z,20.52
2017-06-28T05:06:16.322Z,20.61
2017-06-28T05:06:56.781Z,20.66
2017-06-28T05:07:37.264Z,20.59
2017-06-28T05:08:17.708Z,20.57
2017-06-28T05:08:58.148Z,20.52
2017-06-28T05:09:38.614Z,20.57
2017-06-28T05:10:19.113Z,20.57
2017-06-28T05:10:59.537Z,20.57
2017-06-28T05:11:40.021Z,20.58
2017-06-28T05:12:20.463Z,20.64
2017-06-28T05:13:00.901Z,20.67
2017-06-28T05:13:41.348Z,20.62
2017-06-28T05:14:21.806Z,20.55
2017-06-28T05:15:59.325Z,20.58
2017-06-28T05:16:39.660Z,20.52
2017-06-28T05:17:20.117Z,20.51
2017-06-28T05:18:00.544Z,20.57
2017-06-28T05:18:41.066Z,20.59
2017-06-28T05:19:21.532Z,20.52
2017-06-28T05:20:01.951Z,20.54
2017-06-28T05:20:42.429Z,20.58
2017-06-28T05:22:35.207Z,20.51
2017-06-28T05:23:15.494Z,20.48
2017-06-28T05:23:55.960Z,20.5
2017-06-28T05:24:36.456Z,20.57
2017-06-28T05:25:16.926Z,20.54
2017-06-28T05:25:57.414Z,20.59
2017-06-28T05:26:37.886Z,20.55
2017-06-28T05:27:18.370Z,20.5
2017-06-28T05:27:58.853Z,20.62
2017-06-28T05:28:39.364Z,20.58
2017-06-28T05:29:19.826Z,20.58
2017-06-28T05:31:32.640Z,20.66
2017-06-28T05:32:12.977Z,20.72
2017-06-28T05:32:53.415Z,20.58
2017-06-28T05:33:33.899Z,20.62
2017-06-28T05:34:14.386Z,20.59
2017-06-28T05:34:54.850Z,20.67
2017-06-28T05:35:35.322Z,20.66
2017-06-28T05:36:15.765Z,20.73
2017-06-28T05:36:56.254Z,20.64
2017-06-28T05:37:36.717Z,20.67
2017-06-28T05:38:17.187Z,20.67
2017-06-28T05:38:57.652Z,20.64
2017-06-28T05:39:38.131Z,20.61
2017-06-28T05:41:35.921Z,20.64
2017-06-28T05:42:16.232Z,20.67
2017-06-28T05:42:56.691Z,20.67
2017-06-28T05:43:37.170Z,20.61
2017-06-28T05:44:17.644Z,20.66
2017-06-28T05:44:58.089Z,20.72
2017-06-28T05:45:38.544Z,20.74
2017-06-28T05:46:19.007Z,20.62
2017-06-28T05:48:31.821Z,20.67
2017-06-28T05:49:12.278Z,20.64
2017-06-28T05:49:52.784Z,20.64
2017-06-28T05:50:33.285Z,20.62
2017-06-28T05:51:13.723Z,20.73
2017-06-28T05:51:54.243Z,20.64
2017-06-28T05:52:34.715Z,20.66
2017-06-28T05:53:15.187Z,20.64
2017-06-28T05:53:55.660Z,20.59
2017-06-28T05:54:36.152Z,20.59
2017-06-28T05:56:33.913Z,20.61
2017-06-28T05:57:14.237Z,20.59
2017-06-28T05:57:54.786Z,20.51
2017-06-28T05:58:35.366Z,20.62
2017-06-28T05:59:15.880Z,20.5
2017-06-28T05:59:56.424Z,20.55
2017-06-28T06:00:36.921Z,20.48
2017-06-28T06:01:17.370Z,20.54
2017-06-28T06:01:57.848Z,20.59
2017-06-28T06:03:45.531Z,20.67
2017-06-28T06:04:25.797Z,20.64
2017-06-28T06:05:06.244Z,20.64
2017-06-28T06:05:46.675Z,20.7
2017-06-28T06:06:27.123Z,20.7
2017-06-28T06:07:07.625Z,20.82
2017-06-28T06:07:48.084Z,20.87
2017-06-28T06:08:28.550Z,20.82
2017-06-28T06:09:08.998Z,20.94
2017-06-28T06:09:49.460Z,20.85
2017-06-28T06:10:29.915Z,20.82
2017-06-28T06:11:10.383Z,20.97
2017-06-28T06:11:50.892Z,20.98
2017-06-28T06:12:31.358Z,20.98
2017-06-28T06:13:11.812Z,21.06
2017-06-28T06:13:52.268Z,21.14
2017-06-28T06:15:39.837Z,21.29
2017-06-28T06:16:20.226Z,21.38
2017-06-28T06:19:30.235Z,21.42
2017-06-28T06:20:10.576Z,21.46
2017-06-28T06:20:51.007Z,21.49
2017-06-28T06:21:31.441Z,21.46
2017-06-28T06:22:11.920Z,21.46
2017-06-28T06:22:52.388Z,21.46
2017-06-28T06:23:32.843Z,21.43
2017-06-28T06:24:13.321Z,21.42
2017-06-28T06:24:53.752Z,21.42
2017-06-28T06:25:34.224Z,21.42
2017-06-28T06:26:14.687Z,21.46
2017-06-28T06:26:55.134Z,21.43
2017-06-28T06:28:47.913Z,21.42
2017-06-28T06:29:28.179Z,21.46
2017-06-28T06:30:08.672Z,21.42
2017-06-28T06:30:49.122Z,21.49
2017-06-28T06:31:30.470Z,21.54
2017-06-28T06:32:10.940Z,21.43
2017-06-28T06:32:51.425Z,21.4
2017-06-28T06:33:31.848Z,21.43
2017-06-28T06:34:12.293Z,21.5
2017-06-28T06:34:53.630Z,21.42
2017-06-28T06:35:34.083Z,21.46
2017-06-28T06:36:14.535Z,21.38
2017-06-28T06:36:54.996Z,21.47
2017-06-28T06:37:35.528Z,21.34
2017-06-28T06:38:15.986Z,21.46
2017-06-28T06:38:56.455Z,21.37
2017-06-28T06:39:36.922Z,21.38
2017-06-28T06:40:17.379Z,21.44
2017-06-28T06:40:57.806Z,21.47
2017-06-28T06:41:38.283Z,21.5
2017-06-28T06:42:18.734Z,21.49
2017-06-28T06:42:59.204Z,21.49
2017-06-28T06:43:39.732Z,21.53
2017-06-28T06:45:54.120Z,21.59
2017-06-28T06:46:35.504Z,21.72
2017-06-28T06:47:15.858Z,21.61
2017-06-28T06:47:57.023Z,21.67
2017-06-28T06:49:44.951Z,21.59
2017-06-28T06:50:25.351Z,21.75
2017-06-28T06:51:05.640Z,21.83
2017-06-28T06:51:46.182Z,21.84
2017-06-28T06:52:27.320Z,21.94
2017-06-28T06:53:07.628Z,21.96
2017-06-28T06:53:48.050Z,21.86
2017-06-28T06:54:28.486Z,21.9
2017-06-28T06:55:08.952Z,21.88
2017-06-28T06:57:02.159Z,21.96
2017-06-28T06:57:42.386Z,22.06
2017-06-28T06:58:22.842Z,22.09
2017-06-28T06:59:03.287Z,21.99
2017-06-28T06:59:43.744Z,21.92
2017-06-28T07:01:41.812Z,21.94
2017-06-28T07:02:21.990Z,21.98
2017-06-28T07:03:02.394Z,22.06
2017-06-28T07:03:42.849Z,21.91
2017-06-28T07:04:23.322Z,21.99
2017-06-28T07:06:20.959Z,22.07
2017-06-28T07:07:01.436Z,22.18
2017-06-28T07:07:41.902Z,22.03
2017-06-28T07:09:29.808Z,22.2
2017-06-28T07:10:10.150Z,22.28
2017-06-28T07:12:03.361Z,22.25
2017-06-28T07:12:43.552Z,22.33
2017-06-28T07:13:24.071Z,22.4
2017-06-28T07:14:04.541Z,22.49
2017-06-28T07:14:45.093Z,22.57
2017-06-28T07:15:25.518Z,22.68
2017-06-28T07:16:08.224Z,22.85
2017-06-28T07:16:48.871Z,22.8
2017-06-28T07:17:31.142Z,22.9
2017-06-28T07:18:12.199Z,22.97
2017-06-28T07:18:53.858Z,22.98
2017-06-28T07:19:34.523Z,23.12
2017-06-28T07:21:21.875Z,23.43
2017-06-28T07:22:02.377Z,23.51
2017-06-28T07:22:42.836Z,23.54
2017-06-28T07:23:23.313Z,23.6
2017-06-28T07:24:03.811Z,23.63
2017-06-28T07:24:44.298Z,23.78
2017-06-28T07:25:24.896Z,23.97
2017-06-28T07:26:05.365Z,24.21
2017-06-28T07:26:45.877Z,24.43
2017-06-28T07:27:26.337Z,24.39
2017-06-28T07:28:06.865Z,24.3
2017-06-28T07:29:44.213Z,24.47
2017-06-28T07:30:24.706Z,24.64
2017-06-28T07:31:05.215Z,24.62
2017-06-28T07:31:45.743Z,24.65
2017-06-28T07:32:26.234Z,24.68
2017-06-28T07:33:06.733Z,24.61
2017-06-28T07:33:47.229Z,24.37
2017-06-28T07:34:27.708Z,24.4
2017-06-28T07:35:08.202Z,24.45
2017-06-28T07:35:48.682Z,24.25
2017-06-28T07:36:29.139Z,24.37
2017-06-28T07:37:09.647Z,24.34
2017-06-28T07:37:50.145Z,24.34
2017-06-28T07:38:30.631Z,24.47
2017-06-28T07:39:11.138Z,24.37
2017-06-28T07:39:51.602Z,24.22
2017-06-28T07:40:32.088Z,24.25
2017-06-28T07:41:12.546Z,24.02
2017-06-28T07:41:53.123Z,24.12
2017-06-28T07:42:33.596Z,24.15
2017-06-28T07:43:14.094Z,24
2017-06-28T07:43:54.560Z,24.16
2017-06-28T07:45:32.092Z,23.78
2017-06-28T07:46:12.415Z,23.78
2017-06-28T07:46:52.899Z,23.68
2017-06-28T07:47:33.411Z,23.7
2017-06-28T07:48:13.887Z,23.68
2017-06-28T07:48:54.370Z,23.7
2017-06-28T07:49:34.862Z,23.83
2017-06-28T07:50:15.360Z,23.68
2017-06-28T07:50:55.843Z,23.43
2017-06-28T07:51:36.328Z,23.47
2017-06-28T07:52:16.779Z,23.57
2017-06-28T07:53:54.120Z,23.95
2017-06-28T07:54:34.633Z,23.91
2017-06-28T07:55:15.083Z,23.98
2017-06-28T07:55:55.562Z,23.97
2017-06-28T07:56:36.061Z,24.2
2017-06-28T07:57:16.561Z,24.15
2017-06-28T07:57:57.090Z,24.34
2017-06-28T07:58:37.758Z,24.65
2017-06-28T07:59:18.246Z,25.33
2017-06-28T07:59:58.821Z,25.42
2017-06-28T08:00:39.372Z,25.52
2017-06-28T08:01:19.981Z,25.51
2017-06-28T08:02:01.086Z,25.64
2017-06-28T08:02:41.636Z,25.67
2017-06-28T08:03:22.114Z,25.79
2017-06-28T08:04:02.618Z,25.85
2017-06-28T08:04:43.128Z,25.54
2017-06-28T08:05:23.600Z,25.28
2017-06-28T08:06:04.613Z,25.06
2017-06-28T08:07:52.143Z,24.37
2017-06-28T08:08:32.607Z,24.35
2017-06-28T08:09:13.099Z,23.97
2017-06-28T08:09:53.623Z,24.03
2017-06-28T08:10:34.133Z,23.87
2017-06-28T08:11:14.605Z,23.84
2017-06-28T08:11:55.174Z,23.8
2017-06-28T08:12:35.666Z,23.8
2017-06-28T08:13:16.160Z,23.68
2017-06-28T08:13:56.640Z,23.47
2017-06-28T08:14:37.104Z,23.48
2017-06-28T08:15:18.056Z,23.58
2017-06-28T08:15:58.573Z,23.55
2017-06-28T08:16:39.072Z,23.57
2017-06-28T08:17:19.548Z,23.4
2017-06-28T08:18:00.022Z,23.33
2017-06-28T08:18:40.500Z,23.27
2017-06-28T08:19:21.045Z,23.27
2017-06-28T08:20:01.531Z,23.23
2017-06-28T08:20:42.002Z,23.19
2017-06-28T08:21:22.428Z,23
2017-06-28T08:22:02.931Z,22.68
2017-06-28T08:22:43.407Z,22.52
2017-06-28T08:23:23.920Z,22.55
2017-06-28T08:24:04.372Z,22.64
2017-06-28T08:24:44.871Z,22.42
2017-06-28T08:25:25.284Z,22.45
2017-06-28T08:26:05.818Z,22.39
2017-06-28T08:28:03.553Z,22.43
2017-06-28T08:28:43.934Z,22.4
2017-06-28T08:30:21.309Z,22.24
2017-06-28T08:31:01.733Z,22.09
2017-06-28T08:31:42.188Z,21.99
2017-06-28T08:33:40.076Z,22.17
2017-06-28T08:34:20.518Z,22.18
2017-06-28T08:35:00.929Z,22.2
2017-06-28T08:35:41.365Z,21.92
2017-06-28T08:36:21.891Z,21.94
2017-06-28T08:37:02.524Z,21.92
2017-06-28T08:37:43.148Z,21.79
2017-06-28T08:38:23.592Z,21.59
2017-06-28T08:39:04.560Z,21.77
2017-06-28T08:39:46.625Z,22.02
2017-06-28T08:40:27.563Z,22.06
2017-06-28T08:41:08.230Z,22.17
2017-06-28T08:41:49.723Z,22.17
2017-06-28T08:42:32.292Z,22.12
2017-06-28T08:43:13.253Z,22.06
2017-06-28T08:43:54.988Z,22.25
2017-06-28T08:46:07.853Z,22.68
2017-06-28T08:46:48.511Z,22.79
2017-06-28T08:47:29.873Z,22.98
2017-06-28T08:48:10.442Z,23.05
2017-06-28T08:48:50.948Z,23.12
2017-06-28T08:49:31.389Z,22.94
2017-06-28T08:50:11.835Z,23.32
2017-06-28T08:50:52.322Z,23.22
2017-06-28T08:51:32.818Z,23.55
2017-06-28T08:52:13.316Z,23.63
2017-06-28T08:52:53.781Z,23.84
2017-06-28T08:54:51.780Z,24.24
2017-06-28T08:55:33.774Z,24.4
2017-06-28T08:56:14.475Z,24.65
2017-06-28T08:56:55.220Z,24.77
2017-06-28T08:57:35.768Z,24.76
2017-06-28T08:58:16.226Z,24.64
2017-06-28T08:58:56.718Z,24.69
2017-06-28T08:59:37.339Z,25.08
2017-06-28T09:00:17.903Z,25.21
2017-06-28T09:00:58.373Z,24.95
2017-06-28T09:01:38.849Z,25.14
2017-06-28T09:02:20.512Z,25.39
2017-06-28T09:03:01.031Z,25.09
2017-06-28T09:03:42.153Z,24.91
2017-06-28T09:04:22.897Z,24.53
2017-06-28T09:05:03.334Z,24.52
2017-06-28T09:05:43.918Z,24.71
2017-06-28T09:06:24.342Z,24.91
2017-06-28T09:07:05.203Z,24.9
2017-06-28T09:08:42.624Z,24.62
2017-06-28T09:09:23.040Z,24.96
2017-06-28T09:10:03.522Z,25.1
2017-06-28T09:10:44.015Z,24.95
2017-06-28T09:11:24.511Z,24.81
2017-06-28T09:12:05.009Z,24.64
2017-06-28T09:12:45.516Z,24.8
2017-06-28T09:13:26.001Z,24.83
2017-06-28T09:14:06.469Z,25
2017-06-28T09:14:46.976Z,25.4
2017-06-28T09:16:34.528Z,25.36
2017-06-28T09:17:14.922Z,25.65
2017-06-28T09:17:55.401Z,25.94
2017-06-28T09:18:35.908Z,26.12
2017-06-28T09:19:16.409Z,25.85
2017-06-28T09:19:56.896Z,26.12
2017-06-28T09:20:37.351Z,26.72
2017-06-28T09:21:18.466Z,27
2017-06-28T09:21:58.949Z,27.36
2017-06-28T09:22:39.468Z,27.57
2017-06-28T09:23:19.980Z,27.7
2017-06-28T09:24:00.434Z,27.75
2017-06-28T09:25:37.815Z,27.92
2017-06-28T09:26:18.327Z,27.6
2017-06-28T09:26:58.857Z,27.94
2017-06-28T09:27:39.379Z,27.72
2017-06-28T09:28:19.968Z,27.81
2017-06-28T09:29:00.515Z,27.81
2017-06-28T09:29:40.987Z,27.59
2017-06-28T09:30:21.683Z,27.54
2017-06-28T09:31:02.390Z,27.7
2017-06-28T09:31:42.907Z,27.21
2017-06-28T09:32:23.383Z,27.18
2017-06-28T09:34:21.062Z,26.62
2017-06-28T09:35:01.553Z,26.91
2017-06-28T09:35:42.056Z,26.84
2017-06-28T09:36:22.581Z,26.8
2017-06-28T09:37:03.045Z,26.6
2017-06-28T09:37:43.494Z,26.51
2017-06-28T09:38:23.944Z,26.18
2017-06-28T09:39:04.393Z,26.09
2017-06-28T09:39:45.583Z,26.29
2017-06-28T09:40:26.105Z,26.06
2017-06-28T09:41:06.587Z,26.3
2017-06-28T09:41:47.093Z,26.52
2017-06-28T09:42:27.584Z,27.19
2017-06-28T09:43:08.095Z,28
2017-06-28T09:43:49.521Z,28.22
2017-06-28T09:44:30.036Z,28.85
2017-06-28T09:45:10.549Z,29.24
2017-06-28T09:45:51.038Z,29.6
2017-06-28T09:46:31.545Z,30.84